createdAt,value
2023-02-28T00:00:47.444Z,13.77
2023-02-28T00:03:23.899Z,13.67
2023-02-28T00:05:54.910Z,15.03
2023-02-28T00:08:24.011Z,15.70
2023-02-28T00:10:53.031Z,12.13
2023-02-28T00:13:22.060Z,11.10
2023-02-28T00:16:01.704Z,9.50
2023-02-28T00:18:31.608Z,11.87
2023-02-28T00:21:01.153Z,12.27
2023-02-28T00:23:30.319Z,12.97
2023-02-28T00:25:59.262Z,12.60
2023-02-28T00:28:28.406Z,10.60
2023-02-28T00:30:58.026Z,10.87
2023-02-28T00:33:27.351Z,10.00
2023-02-28T00:36:05.659Z,9.83
2023-02-28T00:38:35.181Z,9.50
2023-02-28T00:41:05.430Z,8.93
2023-02-28T00:43:37.463Z,8.60
2023-02-28T00:46:07.734Z,9.60
2023-02-28T00:48:37.731Z,8.53
2023-02-28T00:51:07.463Z,8.90
2023-02-28T00:53:36.908Z,8.80
2023-02-28T00:56:07.233Z,9.00
2023-02-28T00:58:36.271Z,8.27
2023-02-28T01:01:05.944Z,8.10
2023-02-28T01:03:36.474Z,8.10
2023-02-28T01:06:06.135Z,8.63
2023-02-28T01:08:35.125Z,8.07
2023-02-28T01:11:11.205Z,8.87
2023-02-28T01:13:45.182Z,7.90
2023-02-28T01:16:16.896Z,8.33
2023-02-28T01:18:50.127Z,8.53
2023-02-28T01:21:22.564Z,8.13
2023-02-28T01:23:52.435Z,7.97
2023-02-28T01:26:23.927Z,7.60
2023-02-28T01:28:53.891Z,7.53
2023-02-28T01:31:24.733Z,8.45
2023-02-28T01:33:54.056Z,9.17
2023-02-28T01:36:24.839Z,8.10
2023-02-28T01:38:54.911Z,8.43
2023-02-28T01:41:25.982Z,8.53
2023-02-28T01:44:04.814Z,8.10
2023-02-28T01:46:36.728Z,9.75
2023-02-28T01:49:14.185Z,9.10
2023-02-28T01:51:50.970Z,8.20
2023-02-28T01:54:25.357Z,9.43
2023-02-28T01:56:58.753Z,9.37
2023-02-28T01:59:31.064Z,8.57
2023-02-28T02:02:00.744Z,9.77
2023-02-28T02:04:38.420Z,9.30
2023-02-28T02:07:08.014Z,10.37
2023-02-28T02:09:37.335Z,9.60
2023-02-28T02:12:15.139Z,9.07
2023-02-28T02:15:01.704Z,10.57
2023-02-28T02:17:37.953Z,11.33
2023-02-28T02:20:51.861Z,10.43
2023-02-28T02:23:57.407Z,9.57
2023-02-28T02:26:52.662Z,10.00
2023-02-28T02:30:08.409Z,10.03
2023-02-28T02:33:09.504Z,9.83
2023-02-28T02:35:56.092Z,10.70
2023-02-28T02:38:34.785Z,10.30
2023-02-28T02:41:14.398Z,11.73
2023-02-28T02:43:49.492Z,10.87
2023-02-28T02:46:33.724Z,10.07
2023-02-28T02:49:10.250Z,10.67
2023-02-28T02:54:16.283Z,10.93
2023-02-28T02:56:51.322Z,11.53
2023-02-28T02:59:24.327Z,9.30
2023-02-28T03:01:58.192Z,10.47
2023-02-28T03:04:32.454Z,9.60
2023-02-28T03:07:01.554Z,10.23
2023-02-28T03:09:33.628Z,10.27
2023-02-28T03:12:04.608Z,10.45
2023-02-28T03:14:49.300Z,11.13
2023-02-28T03:20:10.830Z,11.37
2023-02-28T03:22:53.881Z,11.20
2023-02-28T03:25:35.354Z,11.57
2023-02-28T03:28:15.272Z,11.80
2023-02-28T03:30:54.265Z,11.67
2023-02-28T03:33:29.326Z,11.77
2023-02-28T03:36:03.502Z,12.23
2023-02-28T03:38:39.570Z,11.47
2023-02-28T03:41:15.363Z,11.70
2023-02-28T03:43:50.510Z,11.87
2023-02-28T03:46:25.075Z,12.33
2023-02-28T03:48:57.504Z,12.03
2023-02-28T03:51:30.171Z,11.83
2023-02-28T03:54:03.583Z,12.10
2023-02-28T03:56:38.472Z,12.60
2023-02-28T03:59:14.316Z,12.43
2023-02-28T04:01:48.955Z,14.40
2023-02-28T04:04:20.148Z,11.60
2023-02-28T04:06:52.720Z,11.60
2023-02-28T04:09:22.661Z,12.10
2023-02-28T04:11:53.756Z,13.57
2023-02-28T04:14:25.455Z,12.23
2023-02-28T04:16:54.833Z,12.77
2023-02-28T04:19:25.119Z,11.83
2023-02-28T04:21:57.876Z,12.95
2023-02-28T04:24:28.785Z,11.03
2023-02-28T04:26:59.227Z,12.07
2023-02-28T04:29:30.832Z,12.57
2023-02-28T04:32:02.201Z,13.50
2023-02-28T04:34:33.932Z,14.90
2023-02-28T04:37:13.944Z,14.70
2023-02-28T04:39:45.196Z,12.23
2023-02-28T04:42:14.527Z,14.05
2023-02-28T04:44:44.273Z,14.27
2023-02-28T04:47:18.233Z,14.33
2023-02-28T04:49:48.613Z,13.00
2023-02-28T04:52:17.916Z,14.03
2023-02-28T04:54:47.327Z,14.00
2023-02-28T04:57:16.545Z,14.50
2023-02-28T04:59:46.146Z,15.50
2023-02-28T05:02:15.345Z,14.53
2023-02-28T05:04:47.107Z,14.63
2023-02-28T05:07:16.218Z,14.83
2023-02-28T05:09:46.057Z,14.07
2023-02-28T05:12:15.273Z,14.10
2023-02-28T05:14:47.673Z,15.47
2023-02-28T05:17:17.256Z,15.67
2023-02-28T05:19:47.996Z,16.63
2023-02-28T05:22:17.618Z,16.20
2023-02-28T05:24:47.928Z,14.57
2023-02-28T05:27:17.021Z,14.70
2023-02-28T05:29:47.229Z,15.93
2023-02-28T05:32:16.801Z,15.47
2023-02-28T05:34:47.277Z,15.27
2023-02-28T05:37:17.094Z,16.20
2023-02-28T05:39:47.417Z,16.27
2023-02-28T05:42:16.616Z,17.10
2023-02-28T05:44:47.095Z,17.53
2023-02-28T05:47:17.336Z,18.07
2023-02-28T05:49:48.155Z,17.57
2023-02-28T05:52:18.368Z,17.37
2023-02-28T05:54:49.062Z,19.00
2023-02-28T05:57:24.382Z,16.57
2023-02-28T06:00:04.689Z,17.90
2023-02-28T06:05:15.896Z,15.87
2023-02-28T06:07:48.097Z,16.53
2023-02-28T06:10:17.731Z,19.33
2023-02-28T06:12:48.096Z,20.57
2023-02-28T06:15:17.712Z,20.00
2023-02-28T06:17:47.612Z,19.00
2023-02-28T06:20:17.459Z,19.05
2023-02-28T06:22:47.480Z,19.17
2023-02-28T06:25:20.073Z,19.50
2023-02-28T06:27:49.991Z,18.90
2023-02-28T06:30:24.352Z,18.13
2023-02-28T06:32:54.971Z,18.27
2023-02-28T06:35:24.498Z,18.10
2023-02-28T06:37:54.266Z,19.17
2023-02-28T06:40:23.797Z,19.00
2023-02-28T06:42:56.363Z,17.77
2023-02-28T06:45:27.109Z,17.90
2023-02-28T06:47:58.637Z,19.80
2023-02-28T06:50:30.088Z,17.97
2023-02-28T06:53:02.322Z,17.87
2023-02-28T06:55:31.905Z,18.20
2023-02-28T06:58:01.003Z,15.20
2023-02-28T07:00:30.258Z,13.87
2023-02-28T07:03:02.264Z,13.90
2023-02-28T07:05:31.902Z,12.87
2023-02-28T07:08:10.996Z,13.57
2023-02-28T07:10:45.415Z,12.00
2023-02-28T07:15:44.922Z,10.23
2023-02-28T07:18:14.561Z,9.27
2023-02-28T07:20:45.914Z,10.07
2023-02-28T07:23:15.468Z,8.73
2023-02-28T07:25:46.433Z,10.00
2023-02-28T07:28:15.655Z,11.07
2023-02-28T07:30:46.844Z,10.37
2023-02-28T07:33:16.033Z,9.80
2023-02-28T07:35:48.239Z,8.67
2023-02-28T07:38:18.504Z,10.77
2023-02-28T07:40:48.066Z,12.30
2023-02-28T07:43:17.394Z,11.30
2023-02-28T07:45:47.470Z,14.73
2023-02-28T07:48:16.488Z,11.17
2023-02-28T07:50:56.444Z,9.17
2023-02-28T07:53:25.925Z,5.97
2023-02-28T07:55:57.853Z,8.13
2023-02-28T07:58:27.669Z,7.17
2023-02-28T08:00:57.458Z,6.00
2023-02-28T08:03:26.636Z,6.07
2023-02-28T08:05:55.629Z,5.60
2023-02-28T08:08:24.863Z,5.47
2023-02-28T08:10:54.928Z,6.27
2023-02-28T08:13:25.742Z,7.03
2023-02-28T08:15:55.077Z,5.30
2023-02-28T08:18:24.843Z,6.30
2023-02-28T08:20:53.884Z,5.60
2023-02-28T08:23:22.971Z,6.20
2023-02-28T08:25:55.585Z,5.73
2023-02-28T08:28:27.390Z,6.23
2023-02-28T08:30:56.635Z,5.87
2023-02-28T08:33:26.466Z,11.43
2023-02-28T08:35:57.123Z,21.33
2023-02-28T08:38:26.456Z,6.73
2023-02-28T08:41:02.044Z,6.80
2023-02-28T08:43:31.337Z,6.73
2023-02-28T08:46:00.609Z,7.57
2023-02-28T08:48:31.560Z,6.90
2023-02-28T08:51:07.800Z,7.10
2023-02-28T08:53:38.175Z,6.83
2023-02-28T08:56:10.011Z,6.30
2023-02-28T08:58:39.074Z,7.10
2023-02-28T09:01:13.211Z,6.20
2023-02-28T09:06:11.910Z,5.67
2023-02-28T09:08:42.756Z,6.20
2023-02-28T09:11:13.457Z,5.53
2023-02-28T09:13:42.901Z,6.23
2023-02-28T09:16:15.326Z,6.07
2023-02-28T09:18:47.877Z,6.37
2023-02-28T09:21:19.678Z,6.23
2023-02-28T09:23:51.279Z,5.47
2023-02-28T09:26:22.755Z,5.90
2023-02-28T09:28:53.278Z,5.30
2023-02-28T09:31:25.657Z,5.67
2023-02-28T09:33:56.836Z,6.27
2023-02-28T09:36:43.314Z,5.20
2023-02-28T09:39:15.804Z,5.70
2023-02-28T09:41:50.872Z,5.47
2023-02-28T09:44:27.873Z,5.10
2023-02-28T09:47:01.401Z,5.63
2023-02-28T09:49:41.408Z,5.50
2023-02-28T09:52:14.890Z,5.73
2023-02-28T09:54:44.782Z,6.30
2023-02-28T09:57:22.533Z,4.97
2023-02-28T10:00:10.179Z,5.47
2023-02-28T10:03:12.987Z,6.57
2023-02-28T10:05:51.620Z,6.67
2023-02-28T10:08:26.987Z,5.53
2023-02-28T10:10:59.117Z,6.37
2023-02-28T10:13:34.831Z,5.83
2023-02-28T10:16:09.052Z,6.47
2023-02-28T10:18:45.927Z,6.20
2023-02-28T10:21:21.457Z,7.17
2023-02-28T10:23:54.652Z,6.90
2023-02-28T10:26:28.991Z,6.87
2023-02-28T10:28:58.821Z,6.93
2023-02-28T10:31:28.052Z,7.07
2023-02-28T10:33:57.344Z,7.17
2023-02-28T10:36:30.097Z,7.33
2023-02-28T10:39:00.654Z,7.17
2023-02-28T10:41:35.040Z,6.93
2023-02-28T10:44:18.935Z,7.03
2023-02-28T10:46:49.369Z,6.50
2023-02-28T10:49:23.526Z,7.30
2023-02-28T10:51:57.448Z,6.60
2023-02-28T10:54:31.365Z,7.20
2023-02-28T10:57:19.779Z,7.40
2023-02-28T10:59:53.478Z,7.20
2023-02-28T11:05:22.910Z,6.97
2023-02-28T11:07:55.007Z,7.60
2023-02-28T11:10:27.923Z,6.20
2023-02-28T11:13:01.145Z,6.37
2023-02-28T11:15:33.616Z,6.95
2023-02-28T11:18:25.687Z,7.87
2023-02-28T11:20:57.627Z,6.37
2023-02-28T11:23:29.807Z,6.03
2023-02-28T11:26:11.406Z,8.23
2023-02-28T11:28:42.789Z,8.23
2023-02-28T11:31:22.945Z,9.90
2023-02-28T11:33:56.976Z,8.33
2023-02-28T11:36:34.794Z,7.70
2023-02-28T11:39:12.048Z,7.07
2023-02-28T11:42:04.185Z,7.63
2023-02-28T11:44:55.574Z,7.20
2023-02-28T11:47:34.356Z,7.23
2023-02-28T11:50:22.241Z,6.57
2023-02-28T11:52:57.946Z,6.20
2023-02-28T11:55:32.514Z,6.57
2023-02-28T11:58:28.107Z,6.80
2023-02-28T12:01:10.856Z,6.70
2023-02-28T12:03:49.630Z,6.57
2023-02-28T12:06:30.784Z,15.50
2023-02-28T12:09:13.451Z,9.33
2023-02-28T12:11:53.967Z,10.77
2023-02-28T12:14:51.032Z,9.30
2023-02-28T12:17:32.777Z,7.13
2023-02-28T12:20:14.725Z,8.13
2023-02-28T12:23:08.369Z,7.17
2023-02-28T12:26:10.911Z,7.40
2023-02-28T12:29:14.924Z,6.93
2023-02-28T12:32:14.722Z,7.63
2023-02-28T12:35:24.586Z,7.63
2023-02-28T12:38:02.639Z,9.23
2023-02-28T12:40:46.883Z,8.83
2023-02-28T12:43:19.847Z,8.75
2023-02-28T12:45:52.653Z,7.83
2023-02-28T12:48:28.747Z,7.27
2023-02-28T12:50:58.657Z,7.23
2023-02-28T12:53:35.644Z,8.20
2023-02-28T12:56:18.920Z,8.47
2023-02-28T12:58:52.498Z,7.40
2023-02-28T13:01:49.183Z,7.22
2023-02-28T13:04:39.338Z,7.27
2023-02-28T13:07:34.230Z,8.33
2023-02-28T13:10:08.386Z,8.13
2023-02-28T13:12:50.355Z,7.78
2023-02-28T13:15:25.454Z,8.20
2023-02-28T13:17:56.580Z,7.90
2023-02-28T13:20:32.608Z,7.75
2023-02-28T13:23:02.359Z,7.13
2023-02-28T13:25:58.224Z,7.40
2023-02-28T13:29:09.104Z,7.57
2023-02-28T13:32:16.725Z,7.80
2023-02-28T13:35:17.282Z,7.03
2023-02-28T13:37:50.486Z,6.93
2023-02-28T13:40:37.613Z,6.53
2023-02-28T13:43:10.007Z,7.23
2023-02-28T13:45:40.213Z,6.57
2023-02-28T13:48:20.585Z,6.93
2023-02-28T13:50:50.403Z,7.73
2023-02-28T13:53:42.654Z,8.10
2023-02-28T13:56:36.572Z,9.00
2023-02-28T13:59:25.080Z,8.07
2023-02-28T14:02:14.792Z,7.47
2023-02-28T14:05:07.570Z,7.73
2023-02-28T14:07:48.047Z,7.43
2023-02-28T14:10:28.434Z,7.70
2023-02-28T14:13:05.270Z,8.67
2023-02-28T14:15:46.936Z,8.60
2023-02-28T14:18:22.232Z,8.40
2023-02-28T14:20:55.840Z,8.10
2023-02-28T14:23:52.402Z,7.87
2023-02-28T14:26:35.195Z,7.93
2023-02-28T14:29:24.172Z,7.40
2023-02-28T14:31:59.341Z,7.83
2023-02-28T14:34:40.495Z,6.87
2023-02-28T14:37:17.328Z,7.47
2023-02-28T14:39:48.403Z,7.07
2023-02-28T14:42:33.437Z,6.73
2023-02-28T14:45:03.574Z,7.10
2023-02-28T14:47:36.283Z,7.03
2023-02-28T14:50:19.124Z,7.40
2023-02-28T14:52:51.654Z,7.97
2023-02-28T14:55:25.703Z,8.70
2023-02-28T14:57:57.169Z,7.77
2023-02-28T15:00:29.411Z,7.67
2023-02-28T15:03:00.263Z,7.93
2023-02-28T15:05:40.204Z,7.83
2023-02-28T15:08:14.841Z,8.40
2023-02-28T15:10:47.075Z,7.63
2023-02-28T15:13:18.127Z,7.73
2023-02-28T15:16:08.182Z,8.30
2023-02-28T15:18:47.203Z,9.13
2023-02-28T15:21:19.131Z,9.70
2023-02-28T15:23:55.614Z,8.97
2023-02-28T15:26:30.837Z,8.27
2023-02-28T15:29:03.107Z,8.90
2023-02-28T15:31:55.519Z,9.37
2023-02-28T15:34:42.197Z,8.87
2023-02-28T15:37:39.296Z,9.43
2023-02-28T15:40:17.687Z,9.30
2023-02-28T15:43:04.541Z,8.93
2023-02-28T15:45:42.396Z,8.80
2023-02-28T15:48:22.186Z,8.97
2023-02-28T15:50:55.116Z,9.93
2023-02-28T15:53:27.522Z,10.67
2023-02-28T15:56:05.958Z,9.33
2023-02-28T15:58:38.815Z,10.03
2023-02-28T16:01:18.849Z,11.40
2023-02-28T16:03:51.519Z,11.57
2023-02-28T16:06:42.448Z,12.87
2023-02-28T16:09:15.038Z,12.03
2023-02-28T16:11:50.707Z,12.27
2023-02-28T16:14:23.615Z,13.10
2023-02-28T16:16:55.209Z,15.30
2023-02-28T16:19:25.732Z,16.07
2023-02-28T16:21:55.370Z,13.30
2023-02-28T16:24:24.654Z,13.03
2023-02-28T16:26:57.324Z,12.10
2023-02-28T16:29:31.271Z,11.10
2023-02-28T16:32:01.512Z,10.97
2023-02-28T16:34:30.887Z,9.37
2023-02-28T16:37:00.664Z,11.23
2023-02-28T16:39:30.012Z,11.23
2023-02-28T16:41:59.603Z,11.73
2023-02-28T16:44:33.077Z,9.80
2023-02-28T16:47:04.616Z,10.90
2023-02-28T16:49:34.237Z,11.73
2023-02-28T16:52:07.234Z,12.60
2023-02-28T16:54:37.156Z,12.83
2023-02-28T16:57:07.699Z,11.30
2023-02-28T16:59:36.719Z,11.23
2023-02-28T17:02:13.468Z,11.70
2023-02-28T17:04:42.880Z,11.33
2023-02-28T17:07:19.158Z,12.27
2023-02-28T17:09:49.854Z,11.40
2023-02-28T17:12:19.752Z,11.43
2023-02-28T17:14:50.303Z,12.97
2023-02-28T17:17:24.150Z,12.83
2023-02-28T17:19:54.293Z,14.27
2023-02-28T17:22:26.463Z,14.73
2023-02-28T17:24:56.890Z,13.67
2023-02-28T17:27:31.541Z,14.77
2023-02-28T17:30:11.737Z,18.17
2023-02-28T17:32:42.433Z,17.65
2023-02-28T17:35:22.057Z,17.13
2023-02-28T17:37:54.150Z,16.67
2023-02-28T17:40:26.253Z,17.50
2023-02-28T17:42:58.452Z,21.33
2023-02-28T17:45:30.340Z,19.97
2023-02-28T17:48:00.564Z,24.43
2023-02-28T17:50:33.351Z,23.27
2023-02-28T17:53:03.001Z,24.60
2023-02-28T17:55:34.111Z,27.97
2023-02-28T17:58:04.093Z,25.20
2023-02-28T18:00:34.492Z,27.57
2023-02-28T18:03:04.445Z,33.93
2023-02-28T18:05:39.922Z,34.50
2023-02-28T18:08:16.681Z,36.37
2023-02-28T18:10:46.834Z,38.40
2023-02-28T18:13:16.015Z,36.50
2023-02-28T18:15:48.675Z,31.55
2023-02-28T18:18:18.762Z,30.50
2023-02-28T18:20:55.384Z,31.30
2023-02-28T18:23:30.213Z,34.90
2023-02-28T18:26:07.010Z,35.43
2023-02-28T18:28:37.009Z,31.33
2023-02-28T18:31:10.204Z,30.60
2023-02-28T18:33:39.442Z,32.93
2023-02-28T18:36:11.297Z,32.23
2023-02-28T18:38:40.660Z,31.37
2023-02-28T18:41:09.767Z,33.63
2023-02-28T18:43:39.349Z,35.55
2023-02-28T18:46:11.077Z,33.67
2023-02-28T18:48:40.640Z,30.70
2023-02-28T18:51:11.716Z,30.43
2023-02-28T18:53:42.330Z,33.57
2023-02-28T18:56:17.666Z,31.17
2023-02-28T18:58:49.838Z,30.87
2023-02-28T19:01:28.636Z,31.93
2023-02-28T19:04:07.656Z,26.62
2023-02-28T19:06:43.950Z,27.53
2023-02-28T19:09:14.136Z,29.20
2023-02-28T19:11:54.948Z,28.70
2023-02-28T19:14:26.707Z,29.13
2023-02-28T19:17:06.488Z,30.37
2023-02-28T19:19:38.576Z,33.47
2023-02-28T19:22:15.311Z,36.37
2023-02-28T19:24:55.485Z,37.10
2023-02-28T19:27:35.338Z,34.90
2023-02-28T19:30:12.356Z,33.37
2023-02-28T19:32:49.378Z,37.97
2023-02-28T19:35:27.616Z,50.97
2023-02-28T19:38:20.363Z,53.77
2023-02-28T19:41:13.028Z,49.13
2023-02-28T19:43:52.062Z,45.70
2023-02-28T19:46:49.579Z,45.77
2023-02-28T19:52:35.913Z,43.20
2023-02-28T19:55:35.667Z,43.93
2023-02-28T19:58:20.138Z,43.20
2023-02-28T20:01:22.135Z,44.37
2023-02-28T20:04:04.877Z,38.90
2023-02-28T20:06:42.550Z,39.33
2023-02-28T20:09:15.609Z,43.20
2023-02-28T20:11:52.228Z,47.33
2023-02-28T20:14:23.687Z,46.53
2023-02-28T20:16:58.342Z,44.97
2023-02-28T20:19:32.355Z,44.03
2023-02-28T20:22:09.106Z,47.67
2023-02-28T20:24:42.777Z,45.63
2023-02-28T20:27:13.222Z,44.10
2023-02-28T20:29:44.886Z,43.40
2023-02-28T20:32:14.704Z,42.17
2023-02-28T20:34:44.567Z,42.93
2023-02-28T20:37:14.066Z,40.87
2023-02-28T20:39:44.614Z,42.63
2023-02-28T20:42:17.876Z,46.10
2023-02-28T20:44:48.455Z,47.37
2023-02-28T20:47:18.905Z,48.87
2023-02-28T20:49:56.004Z,48.07
2023-02-28T20:52:28.877Z,46.93
2023-02-28T20:55:06.822Z,46.10
2023-02-28T20:57:40.411Z,43.97
2023-02-28T21:00:15.854Z,42.73
2023-02-28T21:02:49.850Z,45.60
2023-02-28T21:05:24.318Z,44.30
2023-02-28T21:07:59.163Z,45.00
2023-02-28T21:13:00.908Z,48.87
2023-02-28T21:15:30.793Z,47.83
2023-02-28T21:18:00.794Z,47.77
2023-02-28T21:20:30.423Z,48.27
2023-02-28T21:23:02.005Z,48.60
2023-02-28T21:25:34.830Z,50.53
2023-02-28T21:28:08.290Z,46.20
2023-02-28T21:30:39.320Z,45.47
2023-02-28T21:33:09.001Z,46.80
2023-02-28T21:35:44.593Z,48.90
2023-02-28T21:38:17.388Z,45.87
2023-02-28T21:40:50.845Z,47.47
2023-02-28T21:43:21.777Z,48.38
2023-02-28T21:46:00.529Z,46.80
2023-02-28T21:48:31.980Z,45.97
2023-02-28T21:51:02.891Z,45.53
2023-02-28T21:53:35.415Z,49.23
2023-02-28T21:56:08.678Z,47.77
2023-02-28T21:58:38.042Z,44.03
2023-02-28T22:01:12.491Z,48.83
2023-02-28T22:03:43.953Z,45.87
2023-02-28T22:06:15.726Z,47.10
2023-02-28T22:08:47.760Z,48.67
2023-02-28T22:11:19.267Z,51.60
2023-02-28T22:13:50.140Z,49.13
2023-02-28T22:16:21.455Z,49.73
2023-02-28T22:19:03.917Z,48.93
2023-02-28T22:21:39.127Z,49.83
2023-02-28T22:24:10.712Z,52.50
2023-02-28T22:26:43.346Z,53.50
2023-02-28T22:29:13.109Z,54.00
2023-02-28T22:31:47.249Z,49.90
2023-02-28T22:34:17.087Z,48.43
2023-02-28T22:36:46.969Z,50.13
2023-02-28T22:39:19.332Z,52.37
2023-02-28T22:41:49.092Z,53.23
2023-02-28T22:44:18.856Z,53.10
2023-02-28T22:46:53.689Z,49.73
2023-02-28T22:49:27.708Z,49.67
2023-02-28T22:52:03.057Z,45.30
2023-02-28T22:54:32.596Z,50.47
2023-02-28T22:57:02.823Z,50.90
2023-02-28T22:59:33.496Z,48.67
2023-02-28T23:02:02.648Z,48.63
2023-02-28T23:04:33.137Z,47.30
2023-02-28T23:07:02.872Z,50.03
2023-02-28T23:09:32.451Z,48.73
2023-02-28T23:12:04.567Z,49.30
2023-02-28T23:14:33.988Z,49.40
2023-02-28T23:17:03.091Z,52.10
2023-02-28T23:19:34.034Z,45.70
2023-02-28T23:22:05.068Z,44.77
2023-02-28T23:24:36.675Z,46.07
2023-02-28T23:27:07.164Z,49.50
2023-02-28T23:29:37.045Z,50.60
2023-02-28T23:32:06.516Z,48.40
2023-02-28T23:34:35.614Z,48.63
2023-02-28T23:37:04.799Z,47.70
2023-02-28T23:39:33.936Z,50.30
2023-02-28T23:42:04.146Z,47.53
2023-02-28T23:44:33.753Z,51.53
2023-02-28T23:47:03.444Z,48.75
2023-02-28T23:49:35.117Z,46.47
2023-02-28T23:52:05.738Z,46.30
2023-02-28T23:54:35.228Z,43.70
2023-02-28T23:57:04.570Z,47.77
2023-02-28T23:59:35.630Z,42.23
